createdAt,value
2023-10-09T00:01:47.321Z,2.35
2023-10-09T00:04:17.754Z,2.38
2023-10-09T00:06:45.318Z,1.90
2023-10-09T00:09:24.357Z,2.65
2023-10-09T00:11:58.181Z,2.60
2023-10-09T00:14:26.799Z,2.03
2023-10-09T00:17:21.038Z,2.70
2023-10-09T00:19:50.854Z,2.20
2023-10-09T00:22:30.993Z,2.47
2023-10-09T00:25:12.045Z,2.90
2023-10-09T00:27:43.216Z,2.72
2023-10-09T00:30:19.792Z,2.20
2023-10-09T00:32:53.595Z,2.88
2023-10-09T00:35:39.195Z,2.55
2023-10-09T00:38:15.709Z,2.60
2023-10-09T00:40:57.183Z,3.15
2023-10-09T00:43:30.886Z,2.85
2023-10-09T00:46:24.922Z,3.08
2023-10-09T00:49:04.189Z,2.83
2023-10-09T00:51:37.787Z,2.90
2023-10-09T00:54:09.777Z,2.92
2023-10-09T00:56:42.613Z,3.63
2023-10-09T00:59:11.080Z,3.35
2023-10-09T01:01:40.938Z,2.65
2023-10-09T01:04:11.502Z,3.00
2023-10-09T01:06:45.030Z,2.80
2023-10-09T01:09:18.076Z,2.78
2023-10-09T01:12:08.825Z,3.00
2023-10-09T01:14:37.587Z,2.72
2023-10-09T01:17:12.550Z,2.58
2023-10-09T01:19:39.397Z,2.53
2023-10-09T01:22:13.653Z,2.80
2023-10-09T01:24:41.184Z,2.58
2023-10-09T01:27:17.691Z,1.85
2023-10-09T01:29:45.282Z,2.90
2023-10-09T01:32:17.920Z,2.53
2023-10-09T01:34:49.216Z,2.72
2023-10-09T01:37:23.781Z,2.78
2023-10-09T01:39:53.016Z,2.05
2023-10-09T01:42:36.523Z,3.05
2023-10-09T01:45:13.232Z,2.75
2023-10-09T01:47:40.877Z,2.92
2023-10-09T01:50:21.386Z,2.55
2023-10-09T01:52:50.722Z,2.47
2023-10-09T01:55:36.896Z,2.58
2023-10-09T01:58:31.915Z,2.17
2023-10-09T02:01:02.961Z,2.42
2023-10-09T02:03:30.745Z,2.42
2023-10-09T02:06:01.318Z,2.30
2023-10-09T02:08:37.008Z,2.00
2023-10-09T02:11:04.369Z,2.60
2023-10-09T02:13:32.764Z,2.70
2023-10-09T02:16:29.250Z,2.22
2023-10-09T02:19:09.057Z,2.85
2023-10-09T02:21:41.446Z,2.10
2023-10-09T02:24:11.141Z,1.92
2023-10-09T02:27:00.913Z,2.00
2023-10-09T02:29:27.772Z,2.35
2023-10-09T02:32:01.953Z,2.10
2023-10-09T02:34:30.617Z,2.30
2023-10-09T02:37:06.662Z,2.20
2023-10-09T02:39:44.577Z,2.20
2023-10-09T02:42:14.289Z,2.25
2023-10-09T02:44:47.127Z,2.05
2023-10-09T02:47:21.466Z,1.90
2023-10-09T02:49:51.859Z,2.10
2023-10-09T02:52:20.468Z,1.98
2023-10-09T02:54:48.312Z,2.20
2023-10-09T02:57:24.991Z,1.92
2023-10-09T02:59:54.710Z,2.65
2023-10-09T03:02:24.103Z,2.30
2023-10-09T03:04:50.952Z,3.20
2023-10-09T03:07:17.773Z,2.20
2023-10-09T03:09:44.538Z,2.38
2023-10-09T03:12:14.092Z,2.08
2023-10-09T03:14:42.686Z,1.92
2023-10-09T03:17:12.779Z,1.88
2023-10-09T03:19:40.844Z,2.05
2023-10-09T03:22:11.986Z,2.33
2023-10-09T03:24:42.831Z,2.67
2023-10-09T03:27:09.822Z,2.60
2023-10-09T03:29:38.241Z,2.28
2023-10-09T03:32:05.340Z,2.45
2023-10-09T03:34:32.159Z,2.83
2023-10-09T03:37:05.225Z,2.08
2023-10-09T03:39:39.901Z,1.92
2023-10-09T03:42:06.954Z,2.40
2023-10-09T03:44:35.649Z,2.33
2023-10-09T03:47:06.340Z,2.08
2023-10-09T03:49:33.124Z,2.38
2023-10-09T03:52:00.750Z,2.67
2023-10-09T03:54:31.116Z,2.28
2023-10-09T03:57:00.201Z,1.77
2023-10-09T03:59:33.329Z,2.40
2023-10-09T04:02:00.096Z,1.67
2023-10-09T04:04:29.182Z,2.13
2023-10-09T04:06:56.176Z,2.60
2023-10-09T04:09:22.933Z,2.20
2023-10-09T04:12:09.567Z,1.90
2023-10-09T04:14:37.103Z,2.38
2023-10-09T04:17:25.354Z,2.28
2023-10-09T04:20:10.973Z,2.60
2023-10-09T04:23:00.870Z,2.28
2023-10-09T04:25:29.615Z,1.92
2023-10-09T04:28:10.250Z,1.83
2023-10-09T04:30:56.494Z,2.03
2023-10-09T04:33:29.930Z,1.92
2023-10-09T04:36:24.198Z,2.22
2023-10-09T04:39:17.412Z,1.88
2023-10-09T04:41:44.338Z,2.33
2023-10-09T04:44:21.666Z,3.05
2023-10-09T04:47:10.009Z,1.92
2023-10-09T04:49:49.056Z,2.08
2023-10-09T04:52:26.441Z,2.25
2023-10-09T04:55:08.448Z,1.70
2023-10-09T04:57:39.859Z,2.28
2023-10-09T05:00:08.143Z,1.88
2023-10-09T05:02:37.932Z,2.67
2023-10-09T05:05:37.386Z,2.53
2023-10-09T05:08:20.285Z,2.10
2023-10-09T05:11:00.150Z,2.10
2023-10-09T05:13:39.794Z,1.58
2023-10-09T05:16:20.951Z,2.05
2023-10-09T05:18:59.261Z,2.05
2023-10-09T05:21:43.368Z,2.38
2023-10-09T05:24:14.937Z,2.00
2023-10-09T05:26:49.841Z,2.30
2023-10-09T05:29:20.839Z,2.08
2023-10-09T05:32:06.264Z,2.03
2023-10-09T05:34:52.458Z,2.38
2023-10-09T05:37:23.888Z,1.73
2023-10-09T05:40:03.032Z,2.08
2023-10-09T05:42:44.382Z,2.42
2023-10-09T05:45:19.982Z,2.00
2023-10-09T05:47:55.133Z,2.53
2023-10-09T05:50:26.554Z,2.78
2023-10-09T05:52:54.606Z,2.88
2023-10-09T05:55:28.804Z,2.53
2023-10-09T05:58:15.339Z,2.75
2023-10-09T06:01:00.753Z,2.38
2023-10-09T06:03:46.594Z,2.65
2023-10-09T06:06:33.470Z,2.13
2023-10-09T06:09:29.720Z,1.95
2023-10-09T06:12:16.657Z,2.80
2023-10-09T06:14:43.469Z,2.22
2023-10-09T06:17:13.032Z,2.20
2023-10-09T06:19:45.748Z,2.55
2023-10-09T06:22:31.181Z,1.75
2023-10-09T06:24:58.793Z,2.40
2023-10-09T06:27:27.597Z,2.60
2023-10-09T06:30:14.494Z,2.22
2023-10-09T06:33:05.828Z,2.38
2023-10-09T06:35:37.199Z,2.50
2023-10-09T06:38:04.455Z,2.25
2023-10-09T06:40:38.302Z,1.90
2023-10-09T06:43:17.671Z,2.33
2023-10-09T06:45:55.480Z,1.95
2023-10-09T06:48:35.051Z,2.35
2023-10-09T06:51:27.478Z,1.70
2023-10-09T06:53:55.483Z,2.80
2023-10-09T06:56:29.215Z,2.08
2023-10-09T06:58:56.709Z,2.63
2023-10-09T07:01:40.753Z,2.33
2023-10-09T07:04:20.581Z,2.63
2023-10-09T07:06:49.928Z,2.72
2023-10-09T07:09:19.849Z,2.17
2023-10-09T07:11:51.890Z,1.88
2023-10-09T07:14:32.287Z,1.88
2023-10-09T07:17:01.502Z,2.15
2023-10-09T07:19:35.904Z,2.53
2023-10-09T07:22:05.825Z,2.60
2023-10-09T07:24:44.221Z,2.03
2023-10-09T07:27:13.789Z,2.40
2023-10-09T07:29:49.362Z,2.45
2023-10-09T07:32:22.430Z,2.20
2023-10-09T07:34:58.431Z,2.55
2023-10-09T07:37:31.644Z,2.50
2023-10-09T07:39:58.677Z,2.40
2023-10-09T07:42:41.620Z,2.88
2023-10-09T07:45:21.305Z,2.83
2023-10-09T07:48:01.014Z,2.38
2023-10-09T07:50:49.743Z,2.65
2023-10-09T07:53:21.177Z,1.80
2023-10-09T07:55:59.411Z,2.33
2023-10-09T07:58:26.809Z,2.05
2023-10-09T08:01:21.057Z,2.28
2023-10-09T08:03:50.469Z,2.75
2023-10-09T08:06:36.219Z,2.30
2023-10-09T08:09:11.986Z,2.13
2023-10-09T08:12:14.817Z,2.13
2023-10-09T08:14:44.620Z,2.30
2023-10-09T08:17:17.916Z,2.45
2023-10-09T08:19:56.120Z,2.00
2023-10-09T08:22:43.968Z,2.67
2023-10-09T08:25:38.099Z,2.83
2023-10-09T08:28:23.692Z,2.45
2023-10-09T08:30:56.492Z,2.65
2023-10-09T08:36:03.210Z,2.90
2023-10-09T08:38:34.328Z,3.08
2023-10-09T08:41:17.073Z,2.33
2023-10-09T08:43:54.517Z,2.83
2023-10-09T08:46:23.720Z,3.03
2023-10-09T08:48:51.634Z,2.58
2023-10-09T08:51:21.062Z,2.42
2023-10-09T08:53:48.323Z,5.00
2023-10-09T08:56:24.590Z,2.10
2023-10-09T08:58:57.379Z,2.30
2023-10-09T09:01:26.291Z,3.33
2023-10-09T09:03:56.705Z,2.50
2023-10-09T09:06:24.320Z,2.47
2023-10-09T09:08:56.203Z,2.40
2023-10-09T09:11:26.159Z,1.85
2023-10-09T09:14:05.810Z,2.70
2023-10-09T09:16:38.201Z,2.47
2023-10-09T09:19:09.482Z,2.35
2023-10-09T09:21:42.012Z,2.40
2023-10-09T09:24:17.825Z,2.60
2023-10-09T09:26:48.001Z,2.40
2023-10-09T09:29:19.579Z,2.38
2023-10-09T09:31:54.758Z,2.83
2023-10-09T09:34:26.912Z,2.22
2023-10-09T09:36:56.120Z,2.60
2023-10-09T09:39:35.430Z,2.40
2023-10-09T09:42:08.397Z,2.50
2023-10-09T09:44:44.443Z,2.20
2023-10-09T09:47:24.917Z,2.95
2023-10-09T09:49:54.117Z,2.45
2023-10-09T09:52:26.049Z,3.33
2023-10-09T09:54:52.949Z,2.45
2023-10-09T09:57:27.091Z,2.53
2023-10-09T09:59:57.720Z,2.25
2023-10-09T10:02:30.810Z,2.65
2023-10-09T10:05:00.204Z,2.35
2023-10-09T10:07:31.366Z,2.95
2023-10-09T10:09:58.969Z,2.70
2023-10-09T10:13:02.093Z,3.13
2023-10-09T10:18:26.018Z,2.97
2023-10-09T10:21:19.718Z,2.63
2023-10-09T10:23:48.509Z,2.28
2023-10-09T10:26:26.913Z,2.22
2023-10-09T10:29:27.867Z,2.83
2023-10-09T10:32:01.752Z,2.45
2023-10-09T10:34:58.118Z,2.53
2023-10-09T10:37:44.907Z,2.55
2023-10-09T10:40:21.113Z,2.80
2023-10-09T10:43:08.946Z,2.72
2023-10-09T10:45:36.752Z,2.38
2023-10-09T10:48:10.384Z,2.40
2023-10-09T10:50:40.190Z,2.50
2023-10-09T10:53:14.654Z,2.17
2023-10-09T10:56:18.691Z,2.10
2023-10-09T10:59:13.069Z,2.58
2023-10-09T11:01:59.716Z,2.40
2023-10-09T11:04:35.018Z,2.38
2023-10-09T11:07:22.785Z,2.55
2023-10-09T11:10:03.439Z,2.67
2023-10-09T11:12:43.938Z,2.20
2023-10-09T11:15:32.336Z,2.15
2023-10-09T11:18:17.997Z,3.30
2023-10-09T11:20:57.545Z,2.58
2023-10-09T11:23:50.636Z,2.58
2023-10-09T11:26:28.634Z,2.97
2023-10-09T11:29:30.122Z,2.58
2023-10-09T11:32:06.536Z,3.00
2023-10-09T11:34:36.405Z,2.50
2023-10-09T11:37:09.996Z,2.45
2023-10-09T11:39:38.987Z,2.95
2023-10-09T11:42:09.670Z,2.65
2023-10-09T11:44:46.769Z,2.90
2023-10-09T11:47:19.659Z,2.13
2023-10-09T11:50:02.357Z,2.20
2023-10-09T11:54:59.972Z,2.58
2023-10-09T11:57:36.294Z,2.10
2023-10-09T12:00:23.964Z,2.60
2023-10-09T12:02:50.853Z,2.40
2023-10-09T12:05:20.760Z,2.50
2023-10-09T12:07:48.141Z,2.72
2023-10-09T12:10:15.707Z,2.45
2023-10-09T12:12:47.564Z,2.25
2023-10-09T12:15:18.889Z,2.90
2023-10-09T12:17:48.317Z,2.25
2023-10-09T12:20:33.510Z,2.67
2023-10-09T12:23:07.638Z,2.75
2023-10-09T12:25:36.573Z,2.70
2023-10-09T12:28:04.149Z,2.30
2023-10-09T12:30:31.693Z,2.97
2023-10-09T12:32:59.563Z,2.63
2023-10-09T12:35:27.123Z,2.47
2023-10-09T12:37:57.720Z,2.70
2023-10-09T12:40:32.308Z,2.95
2023-10-09T12:43:01.911Z,3.00
2023-10-09T12:45:33.258Z,2.58
2023-10-09T12:48:00.803Z,2.13
2023-10-09T12:50:30.431Z,3.10
2023-10-09T12:52:58.033Z,2.45
2023-10-09T12:55:33.302Z,2.85
2023-10-09T12:58:07.415Z,2.40
2023-10-09T13:00:40.791Z,2.47
2023-10-09T13:03:20.895Z,2.35
2023-10-09T13:05:54.264Z,2.35
2023-10-09T13:08:25.616Z,2.70
2023-10-09T13:11:02.411Z,2.70
2023-10-09T13:13:42.825Z,2.55
2023-10-09T13:16:25.813Z,2.67
2023-10-09T13:19:07.017Z,2.67
2023-10-09T13:21:33.797Z,2.88
2023-10-09T13:24:04.056Z,2.38
2023-10-09T13:26:34.775Z,3.10
2023-10-09T13:29:03.862Z,3.00
2023-10-09T13:31:35.226Z,2.53
2023-10-09T13:34:07.444Z,3.08
2023-10-09T13:36:35.211Z,3.08
2023-10-09T13:39:24.540Z,2.30
2023-10-09T13:41:58.932Z,2.83
2023-10-09T13:44:33.127Z,2.80
2023-10-09T13:47:03.972Z,2.97
2023-10-09T13:49:33.730Z,3.05
2023-10-09T13:52:07.734Z,2.45
2023-10-09T13:54:34.466Z,2.70
2023-10-09T13:57:05.097Z,3.47
2023-10-09T13:59:33.088Z,3.00
2023-10-09T14:02:00.713Z,2.90
2023-10-09T14:04:27.723Z,2.83
2023-10-09T14:07:02.501Z,2.65
2023-10-09T14:09:32.603Z,2.55
2023-10-09T14:12:10.318Z,3.10
2023-10-09T14:14:48.137Z,3.25
2023-10-09T14:17:29.680Z,2.75
2023-10-09T14:20:21.236Z,2.80
2023-10-09T14:22:53.587Z,2.47
2023-10-09T14:25:22.516Z,2.28
2023-10-09T14:27:49.337Z,2.60
2023-10-09T14:30:24.074Z,2.42
2023-10-09T14:32:57.033Z,2.70
2023-10-09T14:35:27.820Z,2.60
2023-10-09T14:37:58.410Z,3.03
2023-10-09T14:40:31.074Z,2.58
2023-10-09T14:42:59.010Z,2.60
2023-10-09T14:45:26.952Z,5.30
2023-10-09T14:47:55.067Z,5.80
2023-10-09T14:50:25.386Z,5.18
2023-10-09T14:52:52.460Z,3.00
2023-10-09T14:55:22.209Z,2.72
2023-10-09T14:57:51.177Z,2.78
2023-10-09T15:00:24.015Z,3.05
2023-10-09T15:02:54.227Z,2.55
2023-10-09T15:05:23.686Z,2.13
2023-10-09T15:07:51.480Z,2.50
2023-10-09T15:10:19.428Z,3.22
2023-10-09T15:12:48.199Z,3.05
2023-10-09T15:15:15.522Z,2.70
2023-10-09T15:17:49.287Z,3.45
2023-10-09T15:20:16.832Z,2.78
2023-10-09T15:22:45.014Z,3.38
2023-10-09T15:25:15.902Z,3.00
2023-10-09T15:27:46.686Z,2.17
2023-10-09T15:30:17.871Z,2.60
2023-10-09T15:32:45.205Z,2.70
2023-10-09T15:35:14.053Z,2.90
2023-10-09T15:37:42.354Z,2.38
2023-10-09T15:40:20.067Z,2.75
2023-10-09T15:42:50.737Z,3.10
2023-10-09T15:45:19.023Z,3.72
2023-10-09T15:47:45.998Z,3.65
2023-10-09T15:50:15.650Z,2.83
2023-10-09T15:52:42.462Z,7.00
2023-10-09T15:55:15.360Z,11.20
2023-10-09T15:57:42.696Z,2.97
2023-10-09T16:00:18.956Z,4.28
2023-10-09T16:02:48.477Z,3.55
2023-10-09T16:05:17.977Z,3.08
2023-10-09T16:07:45.449Z,2.50
2023-10-09T16:10:13.237Z,2.95
2023-10-09T16:12:42.974Z,2.58
2023-10-09T16:15:11.338Z,2.65
2023-10-09T16:17:41.014Z,3.22
2023-10-09T16:20:15.070Z,3.10
2023-10-09T16:22:42.240Z,3.00
2023-10-09T16:25:14.558Z,2.80
2023-10-09T16:27:47.639Z,2.63
2023-10-09T16:30:19.678Z,2.53
2023-10-09T16:32:47.620Z,3.00
2023-10-09T16:35:14.914Z,3.35
2023-10-09T16:37:44.626Z,2.55
2023-10-09T16:40:14.880Z,2.88
2023-10-09T16:42:43.385Z,2.88
2023-10-09T16:45:16.897Z,3.00
2023-10-09T16:47:52.341Z,2.80
2023-10-09T16:50:20.636Z,2.13
2023-10-09T16:52:48.143Z,2.80
2023-10-09T16:55:15.992Z,2.80
2023-10-09T16:57:44.547Z,2.80
2023-10-09T17:00:29.373Z,2.63
2023-10-09T17:02:57.901Z,2.67
2023-10-09T17:05:29.210Z,2.75
2023-10-09T17:07:56.769Z,2.30
2023-10-09T17:10:28.662Z,2.85
2023-10-09T17:12:56.202Z,2.63
2023-10-09T17:15:22.972Z,3.00
2023-10-09T17:17:52.756Z,2.50
2023-10-09T17:20:22.806Z,2.30
2023-10-09T17:22:49.672Z,2.75
2023-10-09T17:25:17.815Z,2.58
2023-10-09T17:27:45.129Z,2.38
2023-10-09T17:30:16.620Z,3.05
2023-10-09T17:32:47.284Z,2.60
2023-10-09T17:35:14.937Z,2.47
2023-10-09T17:37:42.755Z,2.50
2023-10-09T17:40:10.305Z,2.95
2023-10-09T17:42:37.450Z,2.38
2023-10-09T17:45:07.696Z,2.42
2023-10-09T17:47:37.616Z,2.08
2023-10-09T17:50:06.098Z,2.70
2023-10-09T17:52:36.323Z,2.42
2023-10-09T17:55:07.385Z,2.80
2023-10-09T17:57:35.702Z,2.75
2023-10-09T18:00:04.924Z,2.33
2023-10-09T18:02:32.763Z,2.80
2023-10-09T18:04:59.723Z,2.70
2023-10-09T18:07:27.983Z,3.28
2023-10-09T18:09:54.965Z,2.58
2023-10-09T18:12:26.198Z,3.00
2023-10-09T18:14:56.035Z,2.83
2023-10-09T18:17:24.386Z,3.28
2023-10-09T18:19:52.819Z,2.88
2023-10-09T18:22:20.568Z,2.75
2023-10-09T18:24:47.413Z,3.17
2023-10-09T18:27:15.487Z,3.10
2023-10-09T18:29:43.314Z,3.00
2023-10-09T18:32:10.227Z,3.30
2023-10-09T18:34:39.398Z,4.10
2023-10-09T18:37:08.324Z,4.18
2023-10-09T18:39:40.046Z,3.83
2023-10-09T18:42:08.031Z,4.13
2023-10-09T18:44:35.527Z,3.85
2023-10-09T18:47:02.341Z,3.28
2023-10-09T18:49:29.516Z,4.13
2023-10-09T18:51:56.709Z,3.97
2023-10-09T18:54:24.074Z,3.30
2023-10-09T18:56:51.548Z,3.42
2023-10-09T18:59:22.308Z,3.95
2023-10-09T19:01:49.909Z,2.95
2023-10-09T19:04:18.967Z,2.90
2023-10-09T19:06:46.882Z,2.40
2023-10-09T19:09:21.519Z,2.92
2023-10-09T19:11:48.539Z,2.80
2023-10-09T19:14:15.702Z,2.60
2023-10-09T19:16:42.652Z,3.08
2023-10-09T19:19:09.644Z,3.13
2023-10-09T19:21:36.503Z,3.15
2023-10-09T19:24:06.858Z,3.05
2023-10-09T19:26:35.394Z,2.67
2023-10-09T19:29:02.573Z,2.70
2023-10-09T19:31:33.251Z,3.13
2023-10-09T19:34:00.313Z,3.08
2023-10-09T19:36:28.344Z,3.35
2023-10-09T19:38:55.175Z,3.08
2023-10-09T19:41:24.219Z,3.58
2023-10-09T19:43:52.610Z,2.58
2023-10-09T19:46:20.127Z,3.28
2023-10-09T19:48:48.083Z,3.05
2023-10-09T19:51:18.089Z,2.58
2023-10-09T19:53:45.885Z,2.95
2023-10-09T19:56:12.803Z,3.03
2023-10-09T19:58:42.869Z,3.13
2023-10-09T20:01:13.658Z,2.80
2023-10-09T20:03:41.038Z,2.60
2023-10-09T20:06:07.802Z,2.85
2023-10-09T20:08:34.804Z,3.15
2023-10-09T20:11:08.875Z,3.38
2023-10-09T20:13:35.872Z,3.38
2023-10-09T20:16:03.951Z,2.72
2023-10-09T20:18:33.708Z,3.58
2023-10-09T20:21:09.247Z,4.15
2023-10-09T20:23:36.844Z,4.88
2023-10-09T20:26:05.602Z,4.90
2023-10-09T20:28:32.805Z,6.93
2023-10-09T20:31:02.750Z,8.52
2023-10-09T20:33:34.588Z,10.93
2023-10-09T20:36:35.760Z,7.07
2023-10-09T20:39:02.781Z,10.73
2023-10-09T20:41:29.808Z,6.80
2023-10-09T20:43:56.714Z,7.30
2023-10-09T20:46:25.356Z,6.97
2023-10-09T20:48:52.384Z,10.30
2023-10-09T20:51:19.364Z,9.02
2023-10-09T20:53:46.805Z,11.05
2023-10-09T20:56:13.856Z,10.40
2023-10-09T20:58:42.154Z,5.60
2023-10-09T21:01:16.294Z,3.92
2023-10-09T21:03:48.816Z,2.95
2023-10-09T21:06:16.308Z,2.67
2023-10-09T21:08:44.514Z,2.83
2023-10-09T21:11:11.440Z,2.50
2023-10-09T21:13:39.121Z,2.50
2023-10-09T21:16:07.119Z,3.05
2023-10-09T21:18:34.068Z,2.85
2023-10-09T21:21:03.422Z,2.97
2023-10-09T21:23:33.129Z,3.03
2023-10-09T21:26:00.393Z,3.05
2023-10-09T21:28:27.234Z,2.58
2023-10-09T21:30:54.117Z,2.70
2023-10-09T21:33:21.057Z,3.05
2023-10-09T21:35:47.830Z,2.15
2023-10-09T21:38:14.636Z,2.45
2023-10-09T21:40:41.433Z,2.83
2023-10-09T21:43:08.351Z,2.65
2023-10-09T21:45:40.287Z,2.80
2023-10-09T21:48:07.958Z,2.83
2023-10-09T21:50:39.374Z,2.83
2023-10-09T21:53:07.148Z,2.90
2023-10-09T21:55:35.104Z,3.20
2023-10-09T21:58:04.718Z,4.53
2023-10-09T22:00:34.570Z,4.13
2023-10-09T22:03:09.235Z,3.65
2023-10-09T22:05:43.318Z,3.83
2023-10-09T22:08:15.649Z,3.90
2023-10-09T22:10:48.829Z,3.65
2023-10-09T22:13:16.299Z,3.92
2023-10-09T22:15:44.471Z,4.15
2023-10-09T22:18:25.807Z,3.85
2023-10-09T22:20:58.066Z,4.03
2023-10-09T22:26:01.961Z,4.07
2023-10-09T22:28:36.067Z,4.75
2023-10-09T22:31:05.357Z,4.15
2023-10-09T22:33:46.509Z,4.30
2023-10-09T22:36:46.867Z,4.13
2023-10-09T22:39:25.655Z,4.30
2023-10-09T22:41:54.932Z,4.63
2023-10-09T22:44:22.679Z,5.20
2023-10-09T22:46:52.477Z,6.38
2023-10-09T22:49:19.440Z,6.70
2023-10-09T22:51:51.369Z,4.43
2023-10-09T22:54:24.612Z,5.15
2023-10-09T22:56:53.026Z,3.75
2023-10-09T22:59:27.516Z,3.30
2023-10-09T23:02:01.110Z,3.35
2023-10-09T23:04:37.716Z,3.25
2023-10-09T23:07:17.872Z,3.55
2023-10-09T23:09:52.326Z,3.63
2023-10-09T23:12:36.838Z,4.05
2023-10-09T23:15:10.596Z,3.72
2023-10-09T23:17:49.430Z,3.40
2023-10-09T23:20:23.654Z,3.53
2023-10-09T23:22:52.201Z,3.40
2023-10-09T23:25:34.867Z,3.60
2023-10-09T23:30:45.263Z,3.85
2023-10-09T23:33:12.078Z,3.25
2023-10-09T23:35:56.224Z,3.75
2023-10-09T23:38:32.310Z,3.45
2023-10-09T23:41:04.877Z,3.13
2023-10-09T23:43:31.681Z,3.35
2023-10-09T23:45:59.350Z,3.03
2023-10-09T23:48:30.140Z,2.97
2023-10-09T23:51:02.106Z,3.03
2023-10-09T23:53:35.128Z,3.17
2023-10-09T23:56:10.206Z,3.42
2023-10-09T23:58:42.032Z,3.28
